Time;durP1;ratioP1;P1;durP2;ratioP2;P2;SDS_P1;SDS_P2;PMS_P1;PMS_P2;Temp;Humidity;BMP_temperature;BMP_pressure;BME280_temperature;BME280_humidity;BME280_pressure;Samples;Min_cycle;Max_cycle;Signal;HPM_P1;HPM_P2
2023/08/01 00:00:34;;;;;;;7.18;3.28;;;563.20;2432.00;;;;;;5102237;28;20397;-69
2023/08/01 00:03:00;;;;;;;6.60;3.50;;;563.30;2432.00;;;;;;5108784;28;20024;-70
2023/08/01 00:05:26;;;;;;;7.90;3.33;;;563.20;2432.00;;;;;;5105416;28;20024;-70
2023/08/01 00:07:52;;;;;;;6.43;3.40;;;538.50;2406.40;;;;;;5095961;28;20020;-70
2023/08/01 00:10:18;;;;;;;6.93;3.30;;;563.20;2432.00;;;;;;5103883;28;20059;-69
2023/08/01 00:12:44;;;;;;;5.57;3.35;;;563.40;2432.00;;;;;;5100812;28;20028;-70
2023/08/01 00:15:10;;;;;;;6.78;3.45;;;563.50;2432.00;;;;;;5094370;28;20465;-70
2023/08/01 00:17:36;;;;;;;6.57;2.90;;;563.50;2432.00;;;;;;5109707;28;20413;-70
2023/08/01 00:20:02;;;;;;;7.88;2.95;;;563.60;2432.00;;;;;;5114333;28;20063;-70
2023/08/01 00:22:28;;;;;;;10.45;4.15;;;563.50;2432.00;;;;;;5114314;28;20047;-70
2023/08/01 00:24:53;;;;;;;8.00;3.92;;;563.20;2432.00;;;;;;5114086;28;20048;-77
2023/08/01 00:27:19;;;;;;;11.43;5.05;;;538.50;2406.40;;;;;;5114214;28;20070;-72
2023/08/01 00:29:45;;;;;;;7.25;4.15;;;538.30;2406.40;;;;;;5114095;28;20020;-72
2023/08/01 00:32:11;;;;;;;10.05;3.80;;;538.40;2406.40;;;;;;5114029;28;20028;-69
2023/08/01 00:34:37;;;;;;;9.18;3.92;;;538.50;2406.40;;;;;;5113534;28;20023;-70
2023/08/01 00:37:03;;;;;;;9.50;3.22;;;538.30;2406.40;;;;;;5114099;28;20081;-69
2023/08/01 00:39:29;;;;;;;6.57;3.05;;;538.40;2406.40;;;;;;5113633;28;20515;-70
2023/08/01 00:41:55;;;;;;;6.28;2.92;;;538.50;2406.40;;;;;;5113873;28;20067;-70
2023/08/01 00:44:20;;;;;;;7.60;3.85;;;538.50;2406.40;;;;;;5113685;28;20106;-71
2023/08/01 00:46:46;;;;;;;10.35;3.72;;;538.50;2406.40;;;;;;5113286;28;20024;-70
2023/08/01 00:49:13;;;;;;;8.77;3.45;;;538.30;2406.40;;;;;;5113622;28;20019;-71
2023/08/01 00:51:39;;;;;;;8.38;3.30;;;538.00;2406.40;;;;;;5113799;28;20373;-75
2023/08/01 00:54:05;;;;;;;7.78;3.53;;;538.00;2406.40;;;;;;5113693;28;20032;-73
2023/08/01 00:56:31;;;;;;;12.02;4.45;;;538.30;2406.40;;;;;;5113873;28;20102;-70
2023/08/01 00:58:57;;;;;;;6.38;3.55;;;538.30;2406.40;;;;;;5113579;28;20496;-70
2023/08/01 01:01:22;;;;;;;9.25;3.42;;;538.40;2406.40;;;;;;5113652;28;20477;-70
2023/08/01 01:03:49;;;;;;;7.88;3.70;;;538.10;2406.40;;;;;;5113461;28;20136;-71
2023/08/01 01:06:18;;;;;;;13.85;4.72;;;537.90;2406.40;;;;;;5113531;28;20030;-70
2023/08/01 01:08:44;;;;;;;8.68;3.70;;;537.70;2406.40;;;;;;5113079;28;20035;-70
2023/08/01 01:11:10;;;;;;;7.85;3.80;;;512.80;2380.80;;;;;;5113753;28;20012;-70
2023/08/01 01:13:36;;;;;;;9.32;4.05;;;512.70;2380.80;;;;;;5113739;28;20030;-70
2023/08/01 01:16:01;;;;;;;9.13;3.53;;;512.30;2380.80;;;;;;5113360;28;20366;-70
2023/08/01 01:18:27;;;;;;;9.80;3.80;;;512.00;2380.80;;;;;;5113644;28;20027;-70
2023/08/01 01:20:53;;;;;;;10.18;3.88;;;487.20;2380.80;;;;;;5113120;28;20385;-69
2023/08/01 01:23:21;;;;;;;9.15;3.83;;;487.20;2380.80;;;;;;5113452;28;20111;-70
2023/08/01 01:25:49;;;;;;;8.25;3.65;;;512.00;2380.80;;;;;;5113205;28;20511;-70
2023/08/01 01:28:15;;;;;;;9.82;3.80;;;512.10;2380.80;;;;;;5113547;28;20465;-70
2023/08/01 01:30:43;;;;;;;10.88;3.65;;;512.30;2380.80;;;;;;5113410;28;20042;-71
2023/08/01 01:33:09;;;;;;;8.05;4.05;;;512.30;2380.80;;;;;;5113421;28;20378;-70
2023/08/01 01:35:35;;;;;;;8.88;4.20;;;512.20;2380.80;;;;;;5112952;28;20032;-70
2023/08/01 01:38:05;;;;;;;10.93;3.83;;;512.10;2380.80;;;;;;5113160;28;20019;-70
2023/08/01 01:40:31;;;;;;;11.38;3.60;;;512.10;2380.80;;;;;;5112980;28;20043;-71
2023/08/01 01:42:57;;;;;;;8.30;4.15;;;512.10;2380.80;;;;;;5113181;28;20020;-70
2023/08/01 01:45:23;;;;;;;10.70;3.88;;;487.30;2380.80;;;;;;5113008;28;20027;-71
2023/08/01 01:47:48;;;;;;;8.15;3.97;;;487.20;2380.80;;;;;;5113221;28;20027;-70
2023/08/01 01:50:14;;;;;;;8.48;3.95;;;487.20;2380.80;;;;;;5113009;28;20035;-70
2023/08/01 01:52:40;;;;;;;8.20;3.50;;;486.80;2380.80;;;;;;5113190;28;20436;-70
2023/08/01 01:55:06;;;;;;;6.68;3.42;;;486.40;2380.80;;;;;;5112981;28;20429;-69
2023/08/01 01:57:31;;;;;;;8.82;4.38;;;461.70;2380.80;;;;;;5113024;28;20027;-70
2023/08/01 01:59:57;;;;;;;7.28;3.33;;;486.50;2380.80;;;;;;5116741;28;20024;-71
2023/08/01 02:02:22;;;;;;;12.40;3.67;;;486.90;2380.80;;;;;;5116987;28;20480;-71
2023/08/01 02:04:50;;;;;;;8.65;3.38;;;487.00;2380.80;;;;;;5116644;28;20030;-72
2023/08/01 02:07:16;;;;;;;6.20;3.60;;;486.80;2380.80;;;;;;5116996;28;20054;-74
2023/08/01 02:09:41;;;;;;;9.55;3.80;;;486.70;2380.80;;;;;;5116173;28;20067;-72
2023/08/01 02:12:09;;;;;;;6.93;3.90;;;486.60;2380.80;;;;;;5115598;28;20035;-72
2023/08/01 02:14:35;;;;;;;11.57;3.58;;;486.60;2380.80;;;;;;5116719;27;20457;-73
2023/08/01 02:17:01;;;;;;;6.88;3.55;;;486.50;2380.80;;;;;;5116873;28;20362;-72
2023/08/01 02:19:27;;;;;;;7.68;3.40;;;486.40;2380.80;;;;;;5116667;28;20024;-72
2023/08/01 02:21:53;;;;;;;5.78;3.78;;;486.50;2380.80;;;;;;5116357;28;20031;-71
2023/08/01 02:24:19;;;;;;;8.90;3.88;;;486.50;2380.80;;;;;;5101918;28;20020;-72
2023/08/01 02:26:45;;;;;;;12.23;5.20;;;486.50;2380.80;;;;;;5115107;28;20030;-73
2023/08/01 02:29:11;;;;;;;8.63;4.63;;;486.40;2380.80;;;;;;5116479;28;20024;-71
2023/08/01 02:31:36;;;;;;;10.80;4.07;;;486.40;2380.80;;;;;;5116306;28;20504;-71
2023/08/01 02:34:02;;;;;;;7.85;4.22;;;486.60;2380.80;;;;;;5116319;28;20145;-72
2023/08/01 02:36:27;;;;;;;8.18;4.13;;;486.70;2380.80;;;;;;5116160;28;20106;-72
2023/08/01 02:38:53;;;;;;;6.40;3.88;;;486.70;2380.80;;;;;;5116062;28;20043;-72
2023/08/01 02:41:19;;;;;;;10.05;4.13;;;486.90;2380.80;;;;;;5116086;28;20039;-72
2023/08/01 02:43:44;;;;;;;10.13;4.10;;;486.80;2380.80;;;;;;5116355;28;20012;-72
2023/08/01 02:46:10;;;;;;;11.55;4.07;;;486.90;2380.80;;;;;;5116039;28;20405;-72
2023/08/01 02:48:37;;;;;;;8.05;4.25;;;487.00;2380.80;;;;;;5116146;28;20024;-71
2023/08/01 02:51:02;;;;;;;7.75;4.00;;;487.00;2380.80;;;;;;5115819;28;20028;-72
2023/08/01 02:53:28;;;;;;;7.43;4.20;;;486.80;2380.80;;;;;;5115899;28;20080;-73
2023/08/01 02:55:54;;;;;;;8.23;4.63;;;486.60;2380.80;;;;;;5115606;28;20085;-72
2023/08/01 02:58:19;;;;;;;7.68;4.47;;;461.70;2380.80;;;;;;5115821;28;20027;-73
2023/08/01 03:00:47;;;;;;;10.88;4.97;;;486.40;2380.80;;;;;;5115654;28;20032;-72
2023/08/01 03:03:13;;;;;;;6.78;4.03;;;486.40;2380.80;;;;;;5113714;28;20028;-72
2023/08/01 03:05:38;;;;;;;8.40;4.60;;;486.40;2380.80;;;;;;5115553;28;20538;-72
2023/08/01 03:08:05;;;;;;;6.38;4.07;;;461.70;2380.80;;;;;;5115253;28;20034;-71
2023/08/01 03:10:30;;;;;;;7.70;3.80;;;461.50;2380.80;;;;;;5115200;28;20070;-71
2023/08/01 03:12:56;;;;;;;9.70;4.28;;;461.50;2380.80;;;;;;5115554;28;20046;-72
2023/08/01 03:15:22;;;;;;;8.85;4.60;;;461.50;2380.80;;;;;;5113760;28;20061;-71
2023/08/01 03:17:47;;;;;;;7.63;4.93;;;461.40;2380.80;;;;;;5115328;28;20019;-71
2023/08/01 03:20:13;;;;;;;11.90;5.45;;;461.20;2380.80;;;;;;5115604;28;20035;-72
2023/08/01 03:22:40;;;;;;;12.93;5.22;;;461.20;2380.80;;;;;;5115219;28;20019;-76
2023/08/01 03:25:07;;;;;;;13.68;4.57;;;461.10;2380.80;;;;;;5115310;28;20031;-72
2023/08/01 03:27:33;;;;;;;10.82;4.93;;;461.10;2380.80;;;;;;5115234;28;20020;-72
2023/08/01 03:30:00;;;;;;;7.75;4.80;;;461.20;2380.80;;;;;;5115305;28;20011;-72
2023/08/01 03:32:25;;;;;;;8.20;4.95;;;461.20;2380.80;;;;;;5115259;28;20016;-77
2023/08/01 03:34:51;;;;;;;9.35;4.82;;;461.20;2380.80;;;;;;5113871;28;20023;-72
2023/08/01 03:37:17;;;;;;;8.93;4.72;;;461.20;2380.80;;;;;;5114954;28;20510;-71
2023/08/01 03:39:44;;;;;;;8.25;4.18;;;461.20;2380.80;;;;;;5114910;28;20024;-73
2023/08/01 03:42:10;;;;;;;10.13;5.22;;;461.30;2380.80;;;;;;5113787;28;20040;-72
2023/08/01 03:44:35;;;;;;;11.27;5.05;;;461.30;2380.80;;;;;;5113665;28;20039;-72
2023/08/01 03:47:01;;;;;;;7.90;5.18;;;461.30;2380.80;;;;;;5114901;28;20101;-72
2023/08/01 03:49:27;;;;;;;10.43;5.05;;;461.40;2380.80;;;;;;5114866;28;20027;-72
2023/08/01 03:51:52;;;;;;;12.38;6.20;;;461.50;2380.80;;;;;;5101232;28;20024;-71
2023/08/01 03:54:18;;;;;;;10.52;5.00;;;461.70;2380.80;;;;;;5114711;28;20028;-71
2023/08/01 03:56:44;;;;;;;11.07;6.15;;;486.40;2380.80;;;;;;5113592;28;20544;-72
2023/08/01 03:59:14;;;;;;;10.95;5.53;;;486.40;2380.80;;;;;;5114527;28;20030;-73
2023/08/01 04:01:40;;;;;;;11.57;6.10;;;461.60;2380.80;;;;;;5113143;28;20080;-73
2023/08/01 04:04:06;;;;;;;11.18;4.95;;;461.40;2380.80;;;;;;5114644;28;20485;-71
2023/08/01 04:06:32;;;;;;;12.07;6.80;;;461.40;2380.80;;;;;;5114620;27;20079;-72
2023/08/01 04:08:59;;;;;;;11.38;6.28;;;461.60;2380.80;;;;;;5113933;28;20124;-71
2023/08/01 04:11:25;;;;;;;13.20;5.97;;;461.60;2380.80;;;;;;5114444;28;20457;-71
2023/08/01 04:13:51;;;;;;;12.85;6.32;;;461.50;2380.80;;;;;;5114299;28;20035;-71
2023/08/01 04:16:17;;;;;;;12.55;6.78;;;461.60;2380.80;;;;;;5114578;28;20381;-71
2023/08/01 04:18:42;;;;;;;13.25;6.50;;;461.50;2380.80;;;;;;5114300;28;20030;-71
2023/08/01 04:21:08;;;;;;;19.73;7.55;;;461.50;2380.80;;;;;;5111950;28;20089;-72
2023/08/01 04:23:34;;;;;;;9.98;6.28;;;461.50;2380.80;;;;;;5114134;28;20072;-71
2023/08/01 04:26:00;;;;;;;11.82;6.43;;;461.60;2380.80;;;;;;5114181;28;20384;-72
2023/08/01 04:28:25;;;;;;;12.18;6.82;;;461.70;2380.80;;;;;;5103447;28;20477;-71
2023/08/01 04:30:52;;;;;;;10.23;6.72;;;486.40;2380.80;;;;;;5104580;28;20051;-71
2023/08/01 04:33:18;;;;;;;12.70;6.90;;;486.60;2380.80;;;;;;5102891;28;20070;-71
2023/08/01 04:35:44;;;;;;;14.65;6.82;;;486.70;2380.80;;;;;;5100410;28;20481;-72
2023/08/01 04:38:13;;;;;;;11.38;6.90;;;486.90;2380.80;;;;;;5099808;28;20095;-71
2023/08/01 04:40:38;;;;;;;11.20;7.13;;;487.00;2380.80;;;;;;5099013;28;20485;-71
2023/08/01 04:43:04;;;;;;;11.02;7.18;;;487.00;2380.80;;;;;;5103657;28;20020;-71
2023/08/01 04:45:30;;;;;;;10.38;6.50;;;487.10;2380.80;;;;;;5099025;28;20020;-70
2023/08/01 04:47:55;;;;;;;8.05;6.20;;;487.10;2380.80;;;;;;5105400;28;20028;-73
2023/08/01 04:50:21;;;;;;;13.43;6.65;;;487.30;2380.80;;;;;;5099115;28;20504;-72
2023/08/01 04:52:47;;;;;;;14.15;6.40;;;487.30;2380.80;;;;;;5100128;28;20020;-72
2023/08/01 04:55:12;;;;;;;16.65;6.95;;;512.00;2380.80;;;;;;5104814;28;20052;-73
2023/08/01 04:57:38;;;;;;;11.48;7.30;;;512.20;2380.80;;;;;;5094718;28;20102;-72
2023/08/01 05:00:05;;;;;;;12.07;7.40;;;512.40;2380.80;;;;;;5102390;28;20042;-71
2023/08/01 05:02:30;;;;;;;14.02;6.95;;;512.60;2380.80;;;;;;5102780;28;20020;-72
2023/08/01 05:04:56;;;;;;;17.80;7.50;;;512.60;2380.80;;;;;;5100160;28;20496;-71
2023/08/01 05:07:22;;;;;;;12.68;6.47;;;512.90;2380.80;;;;;;5101304;28;20035;-70
2023/08/01 05:09:48;;;;;;;12.13;7.20;;;;;;;;;;5096019;28;20064;-69
2023/08/01 05:12:13;;;;;;;13.35;7.20;;;537.80;2406.40;;;;;;5100834;28;20039;-71
2023/08/01 05:14:39;;;;;;;17.02;7.43;;;537.80;2406.40;;;;;;5101530;28;20027;-71
2023/08/01 05:17:05;;;;;;;14.40;8.00;;;538.00;2406.40;;;;;;5099557;28;20023;-71
2023/08/01 05:19:31;;;;;;;11.65;7.28;;;;;;;;;;5097811;28;20032;-71
2023/08/01 05:21:57;;;;;;;11.45;6.20;;;538.50;2406.40;;;;;;5128531;27;20044;-71
2023/08/01 05:24:22;;;;;;;13.43;7.18;;;538.50;2406.40;;;;;;5104402;28;20092;-71
2023/08/01 05:26:48;;;;;;;13.55;7.40;;;538.50;2406.40;;;;;;5105212;28;20024;-70
2023/08/01 05:29:14;;;;;;;15.32;8.07;;;538.50;2406.40;;;;;;5102316;28;20530;-72
2023/08/01 05:31:39;;;;;;;12.38;7.30;;;538.50;2406.40;;;;;;5097592;28;20424;-70
2023/08/01 05:34:05;;;;;;;13.65;7.97;;;563.20;2432.00;;;;;;5110870;28;20023;-71
2023/08/01 05:36:31;;;;;;;18.27;7.82;;;563.30;2432.00;;;;;;5103549;28;20032;-71
2023/08/01 05:38:57;;;;;;;11.38;7.32;;;;;;;;;;5105523;28;20024;-73
2023/08/01 05:41:24;;;;;;;11.88;7.95;;;;;;;;;;5101942;28;20068;-71
2023/08/01 05:43:50;;;;;;;17.85;8.55;;;;;;;;;;5102624;28;20107;-72
2023/08/01 05:46:16;;;;;;;10.57;6.72;;;;;;;;;;5103426;28;20032;-72
2023/08/01 05:48:42;;;;;;;12.48;7.18;;;;;;;;;;5105461;28;20485;-71
2023/08/01 05:51:08;;;;;;;16.05;8.00;;;564.10;2432.00;;;;;;5106236;28;20024;-72
2023/08/01 05:53:34;;;;;;;10.95;7.05;;;588.80;2432.00;;;;;;5105818;28;20022;-74
2023/08/01 05:55:59;;;;;;;13.15;6.57;;;589.10;2432.00;;;;;;5108362;28;20090;-73
2023/08/01 05:58:25;;;;;;;13.27;6.35;;;589.10;2432.00;;;;;;5104229;28;20076;-73
2023/08/01 06:00:51;;;;;;;11.65;6.13;;;589.00;2432.00;;;;;;5105053;28;20051;-74
2023/08/01 06:03:17;;;;;;;10.80;6.70;;;589.00;2432.00;;;;;;5100753;28;20058;-72
2023/08/01 06:05:43;;;;;;;9.93;5.43;;;589.10;2432.00;;;;;;5107000;28;20016;-72
2023/08/01 06:08:09;;;;;;;9.48;5.28;;;589.30;2432.00;;;;;;5099380;28;20020;-71
2023/08/01 06:10:37;;;;;;;11.80;5.60;;;589.40;2432.00;;;;;;5100458;28;20040;-73
2023/08/01 06:13:03;;;;;;;8.68;5.07;;;589.60;2432.00;;;;;;5101372;28;20077;-72
2023/08/01 06:15:29;;;;;;;7.63;5.38;;;589.60;2432.00;;;;;;5105696;28;20032;-71
2023/08/01 06:17:55;;;;;;;11.25;5.30;;;589.70;2432.00;;;;;;5103561;28;20450;-70
2023/08/01 06:20:20;;;;;;;10.48;5.47;;;614.40;2432.00;;;;;;5114809;27;20098;-71
2023/08/01 06:22:46;;;;;;;9.50;5.40;;;614.50;2432.00;;;;;;5104106;28;20020;-70
2023/08/01 06:25:12;;;;;;;17.63;6.03;;;614.60;2432.00;;;;;;5106513;28;20461;-72
2023/08/01 06:27:38;;;;;;;9.82;4.55;;;614.80;2432.00;;;;;;5096085;28;20016;-71
2023/08/01 06:30:04;;;;;;;8.13;3.90;;;614.80;2432.00;;;;;;5102934;28;20020;-71
2023/08/01 06:32:30;;;;;;;9.63;4.15;;;615.00;2432.00;;;;;;5102934;28;20027;-71
2023/08/01 06:34:56;;;;;;;7.07;4.10;;;615.00;2432.00;;;;;;5104909;28;20049;-72
2023/08/01 06:37:23;;;;;;;9.77;4.82;;;615.10;2432.00;;;;;;5098166;28;20036;-71
2023/08/01 06:39:49;;;;;;;11.68;6.25;;;615.20;2432.00;;;;;;5103245;28;20032;-72
2023/08/01 06:42:16;;;;;;;17.95;8.68;;;615.30;2432.00;;;;;;5097225;28;20089;-71
2023/08/01 06:44:41;;;;;;;13.15;6.68;;;640.10;2406.40;;;;;;5106704;28;20020;-71
2023/08/01 06:47:07;;;;;;;18.73;8.57;;;640.20;2278.40;;;;;;5111622;28;20031;-71
2023/08/01 06:49:33;;;;;;;7.38;4.55;;;640.30;2227.20;;;;;;5115980;28;20029;-73
2023/08/01 06:51:59;;;;;;;7.93;4.28;;;640.30;2124.80;;;;;;5115272;28;20031;-71
2023/08/01 06:54:24;;;;;;;7.22;4.63;;;640.50;2073.60;;;;;;5116102;28;20051;-73
2023/08/01 06:56:50;;;;;;;7.68;3.88;;;640.60;2022.40;;;;;;5116181;28;20043;-73
2023/08/01 06:59:16;;;;;;;11.80;4.90;;;640.70;2022.40;;;;;;5115854;28;20030;-72
2023/08/01 07:01:43;;;;;;;10.15;4.05;;;640.90;1971.20;;;;;;5115802;28;20032;-72
2023/08/01 07:04:13;;;;;;;7.43;3.95;;;665.60;1971.20;;;;;;5115987;28;20020;-71
2023/08/01 07:06:39;;;;;;;9.32;4.95;;;665.70;1945.60;;;;;;5115837;28;20023;-72
2023/08/01 07:09:05;;;;;;;7.63;3.45;;;;;;;;;;5115229;28;20493;-73
2023/08/01 07:11:32;;;;;;;6.05;3.08;;;;;;;;;;5116006;28;20023;-73
2023/08/01 07:13:58;;;;;;;9.18;4.05;;;;;;;;;;5114321;28;20473;-72
2023/08/01 07:16:24;;;;;;;8.27;3.15;;;;;;;;;;5115594;28;20027;-72
2023/08/01 07:18:50;;;;;;;4.90;3.08;;;;;;;;;;5115161;28;20545;-72
2023/08/01 07:21:17;;;;;;;5.57;3.70;;;;;;;;;;5114224;28;20381;-72
2023/08/01 07:23:43;;;;;;;7.53;3.50;;;;;;;;;;5115045;28;20469;-72
2023/08/01 07:26:10;;;;;;;9.68;3.15;;;;;;;;;;5115346;28;20538;-73
2023/08/01 07:28:35;;;;;;;10.40;2.80;;;691.80;1894.40;;;;;;5115124;28;20020;-72
2023/08/01 07:31:04;;;;;;;7.97;3.50;;;691.80;1715.20;;;;;;5115204;28;20027;-72
2023/08/01 07:33:30;;;;;;;7.15;3.00;;;691.80;1664.00;;;;;;5115067;28;20044;-73
2023/08/01 07:35:56;;;;;;;6.95;2.67;;;691.80;1587.20;;;;;;5113887;28;20146;-73
2023/08/01 07:38:22;;;;;;;5.18;2.75;;;;;;;;;;5114857;28;20035;-73
2023/08/01 07:40:48;;;;;;;8.27;2.40;;;;;;;;;;5113866;28;20040;-73
2023/08/01 07:43:14;;;;;;;5.50;2.40;;;717.00;1536.00;;;;;;5114918;28;20051;-72
2023/08/01 07:45:39;;;;;;;5.03;2.75;;;717.00;1510.40;;;;;;5115207;28;20102;-72
2023/08/01 07:48:05;;;;;;;6.38;3.10;;;717.20;1536.00;;;;;;5114656;28;20035;-73
2023/08/01 07:50:31;;;;;;;6.38;2.80;;;717.10;1536.00;;;;;;5113321;28;20107;-74
2023/08/01 07:52:57;;;;;;;6.60;3.25;;;;;;;;;;5114780;28;20088;-73
2023/08/01 07:55:23;;;;;;;5.00;2.70;;;717.30;1459.20;;;;;;5114677;28;20016;-74
2023/08/01 07:57:49;;;;;;;8.63;2.58;;;717.50;1484.80;;;;;;5114824;28;20024;-73
2023/08/01 08:00:15;;;;;;;9.63;2.95;;;717.50;1459.20;;;;;;5114628;28;20080;-74
2023/08/01 08:02:45;;;;;;;6.57;2.90;;;742.40;1484.80;;;;;;5114419;28;20023;-74
2023/08/01 08:05:11;;;;;;;7.63;2.92;;;742.70;1459.20;;;;;;5114703;28;20024;-74
2023/08/01 08:07:37;;;;;;;7.25;2.90;;;742.70;1484.80;;;;;;5114289;28;20024;-73
2023/08/01 08:10:04;;;;;;;6.35;2.85;;;742.80;1459.20;;;;;;5114319;28;20048;-72
2023/08/01 08:12:30;;;;;;;7.30;3.30;;;742.80;1433.60;;;;;;5114352;28;20023;-73
2023/08/01 08:14:56;;;;;;;10.80;3.38;;;743.10;1408.00;;;;;;5114485;28;20024;-72
2023/08/01 08:17:22;;;;;;;6.55;2.72;;;743.20;1433.60;;;;;;5113967;28;20031;-73
2023/08/01 08:19:47;;;;;;;7.57;2.60;;;768.00;1356.80;;;;;;5114372;28;20027;-73
2023/08/01 08:22:13;;;;;;;7.13;3.00;;;768.00;1408.00;;;;;;5114177;28;20027;-72
2023/08/01 08:24:39;;;;;;;6.40;2.67;;;768.00;1433.60;;;;;;5114142;28;20016;-73
2023/08/01 08:27:05;;;;;;;4.40;2.65;;;768.00;1408.00;;;;;;5114120;28;20421;-72
2023/08/01 08:29:32;;;;;;;18.50;3.60;;;768.30;1408.00;;;;;;5112934;28;20465;-75
2023/08/01 08:31:58;;;;;;;7.25;3.10;;;768.30;1408.00;;;;;;5114026;28;20073;-73
2023/08/01 08:34:24;;;;;;;10.73;3.08;;;768.20;1408.00;;;;;;5114052;28;20091;-74
2023/08/01 08:36:52;;;;;;;6.13;2.63;;;768.50;1433.60;;;;;;5112634;28;20131;-73
2023/08/01 08:39:18;;;;;;;6.63;2.58;;;768.20;1433.60;;;;;;5113720;28;20020;-73
2023/08/01 08:41:52;;;;;;;3.92;2.22;;;768.30;1408.00;;;;;;5113830;28;20088;-73
2023/08/01 08:44:24;;;;;;;8.50;2.72;;;768.40;1382.40;;;;;;5114009;28;20019;-73
2023/08/01 08:46:51;;;;;;;6.68;2.60;;;768.50;1433.60;;;;;;5113640;28;20015;-72
2023/08/01 08:49:20;;;;;;;9.38;3.10;;;768.70;1433.60;;;;;;5113879;28;20024;-73
2023/08/01 08:51:46;;;;;;;13.85;3.63;;;768.80;1382.40;;;;;;5113707;28;20060;-72
2023/08/01 08:54:13;;;;;;;5.78;2.17;;;768.90;1408.00;;;;;;5113676;28;20027;-73
2023/08/01 08:56:43;;;;;;;7.53;3.50;;;768.90;1356.80;;;;;;5113673;28;20104;-74
2023/08/01 08:59:12;;;;;;;5.88;2.75;;;;;;;;;;5112356;28;20358;-74
2023/08/01 09:01:38;;;;;;;3.63;2.13;;;;;;;;;;5113227;28;20028;-79
2023/08/01 09:04:05;;;;;;;5.22;2.72;;;794.10;1382.40;;;;;;5112364;28;20164;-72
2023/08/01 09:06:39;;;;;;;7.22;2.55;;;793.70;1382.40;;;;;;5111378;28;20035;-73
2023/08/01 09:09:13;;;;;;;6.55;3.53;;;793.60;1408.00;;;;;;5113276;28;20124;-74
2023/08/01 09:11:49;;;;;;;4.05;2.42;;;794.10;1408.00;;;;;;5113654;28;20496;-73
2023/08/01 09:14:16;;;;;;;5.15;2.67;;;794.10;1408.00;;;;;;5113465;28;20157;-77
2023/08/01 09:16:43;;;;;;;6.03;3.00;;;793.80;1408.00;;;;;;5146540;27;20114;-73
2023/08/01 09:19:09;;;;;;;4.10;2.33;;;794.30;1408.00;;;;;;5113662;28;20020;-74
2023/08/01 09:21:39;;;;;;;8.63;3.03;;;819.20;1382.40;;;;;;5113499;28;20035;-73
2023/08/01 09:24:11;;;;;;;4.45;2.65;;;819.20;1408.00;;;;;;5113191;28;20063;-73
2023/08/01 09:26:38;;;;;;;3.85;2.50;;;819.40;1356.80;;;;;;5113442;28;20096;-72
2023/08/01 09:29:03;;;;;;;5.32;2.40;;;819.50;1356.80;;;;;;5113146;28;20096;-73
2023/08/01 09:31:31;;;;;;;5.47;2.75;;;819.30;1356.80;;;;;;5112446;28;20103;-73
2023/08/01 09:33:57;;;;;;;4.25;2.28;;;819.30;1331.20;;;;;;5113225;28;20030;-74
2023/08/01 09:36:23;;;;;;;4.35;2.22;;;819.80;1331.20;;;;;;5113346;28;20480;-77
2023/08/01 09:38:49;;;;;;;6.00;2.40;;;820.00;1280.00;;;;;;5113068;28;20518;-76
2023/08/01 09:41:19;;;;;;;3.22;2.38;;;845.10;1305.60;;;;;;5113103;28;20036;-75
2023/08/01 09:43:46;;;;;;;7.20;4.18;;;845.40;1280.00;;;;;;5099769;28;20069;-76
2023/08/01 09:46:12;;;;;;;4.25;2.50;;;870.50;1228.80;;;;;;5113173;28;20027;-75
2023/08/01 09:48:39;;;;;;;5.75;2.58;;;870.80;1228.80;;;;;;5113109;28;20493;-75
2023/08/01 09:51:06;;;;;;;4.13;2.63;;;871.00;1126.40;;;;;;5113141;28;20062;-74
2023/08/01 09:53:32;;;;;;;4.90;2.85;;;870.80;1203.20;;;;;;5113328;28;20092;-75
2023/08/01 09:56:01;;;;;;;4.60;2.53;;;870.90;1177.60;;;;;;5112876;28;20077;-74
2023/08/01 09:58:36;;;;;;;5.90;2.50;;;870.90;1203.20;;;;;;5113128;28;20020;-74
2023/08/01 10:01:02;;;;;;;4.47;2.65;;;870.70;1203.20;;;;;;5112815;28;20123;-74
2023/08/01 10:03:29;;;;;;;4.55;2.83;;;871.30;1152.00;;;;;;5113149;28;20094;-74
2023/08/01 10:05:56;;;;;;;4.70;2.80;;;870.40;1177.60;;;;;;5111484;28;20043;-75
2023/08/01 10:08:22;;;;;;;4.95;3.42;;;845.60;1203.20;;;;;;5112741;28;20500;-74
2023/08/01 10:10:48;;;;;;;5.78;3.20;;;870.40;1203.20;;;;;;5112682;28;20042;-75
2023/08/01 10:13:14;;;;;;;7.70;2.97;;;870.50;1152.00;;;;;;5112988;28;20023;-74
2023/08/01 10:15:41;;;;;;;4.45;2.67;;;870.70;1152.00;;;;;;5112875;28;20104;-75
2023/08/01 10:18:08;;;;;;;5.72;3.03;;;871.10;1100.80;;;;;;5112817;28;20325;-75
2023/08/01 10:20:37;;;;;;;7.60;2.75;;;870.80;1152.00;;;;;;5115909;28;20400;-76
2023/08/01 10:23:04;;;;;;;5.32;2.75;;;870.90;1152.00;;;;;;5116575;28;20080;-75
2023/08/01 10:25:30;;;;;;;4.40;2.90;;;870.90;1152.00;;;;;;5116421;27;20030;-73
2023/08/01 10:28:00;;;;;;;3.97;2.60;;;870.90;1126.40;;;;;;5114693;28;20031;-74
2023/08/01 10:30:27;;;;;;;5.53;2.90;;;870.80;1152.00;;;;;;5116416;28;20023;-74
2023/08/01 10:32:56;;;;;;;4.63;3.05;;;871.10;1152.00;;;;;;5116500;28;20016;-75
2023/08/01 10:35:36;;;;;;;7.88;3.53;;;896.60;1100.80;;;;;;5116210;28;20044;-75
2023/08/01 10:38:11;;;;;;;3.75;2.58;;;871.30;1126.40;;;;;;5115027;28;20031;-74
2023/08/01 10:40:38;;;;;;;6.57;3.00;;;871.10;1152.00;;;;;;5116181;28;20401;-75
2023/08/01 10:43:04;;;;;;;3.75;2.70;;;896.10;1075.20;;;;;;5115994;28;20036;-76
2023/08/01 10:45:30;;;;;;;3.60;2.65;;;896.20;1049.60;;;;;;5116188;28;20493;-74
2023/08/01 10:48:07;;;;;;;5.28;3.17;;;896.30;1049.60;;;;;;5116094;28;20108;-75
2023/08/01 10:50:33;;;;;;;4.28;2.58;;;871.30;1075.20;;;;;;5113273;28;20447;-73
2023/08/01 10:53:07;;;;;;;5.50;3.00;;;896.70;1075.20;;;;;;5103898;28;20028;-74
2023/08/01 10:55:41;;;;;;;5.38;2.83;;;896.20;1100.80;;;;;;5103865;28;20062;-75
2023/08/01 10:58:07;;;;;;;5.03;2.63;;;896.50;1100.80;;;;;;5112380;27;20058;-75
2023/08/01 11:00:33;;;;;;;6.82;2.72;;;896.60;1100.80;;;;;;5098871;28;20090;-76
2023/08/01 11:02:59;;;;;;;5.95;2.70;;;896.30;1100.80;;;;;;5099047;28;20016;-76
2023/08/01 11:05:26;;;;;;;12.35;3.38;;;871.30;1075.20;;;;;;5105311;28;20141;-71
2023/08/01 11:07:59;;;;;;;5.85;3.28;;;896.10;1100.80;;;;;;5101754;28;20146;-73
2023/08/01 11:10:27;;;;;;;6.05;2.92;;;896.20;1075.20;;;;;;5094630;28;20052;-74
2023/08/01 11:12:53;;;;;;;4.55;3.17;;;896.20;1100.80;;;;;;5110628;28;20429;-74
2023/08/01 11:15:19;;;;;;;6.85;2.65;;;896.10;1126.40;;;;;;5100986;28;20020;-75
2023/08/01 11:17:53;;;;;;;5.28;3.53;;;896.50;1126.40;;;;;;5098346;28;20021;-73
2023/08/01 11:20:21;;;;;;;4.03;2.90;;;896.20;1126.40;;;;;;5110306;28;20083;-73
2023/08/01 11:22:51;;;;;;;8.07;3.17;;;896.70;1100.80;;;;;;5105610;28;20531;-74
2023/08/01 11:25:17;;;;;;;5.70;2.72;;;896.30;1126.40;;;;;;5102092;28;20028;-74
2023/08/01 11:27:43;;;;;;;9.90;3.10;;;896.60;1126.40;;;;;;5097758;28;20382;-74
2023/08/01 11:30:09;;;;;;;6.35;3.75;;;896.50;1126.40;;;;;;5099030;28;20080;-75
2023/08/01 11:32:37;;;;;;;5.03;3.40;;;921.70;1152.00;;;;;;5104558;28;20031;-76
2023/08/01 11:35:03;;;;;;;8.32;3.15;;;896.60;1126.40;;;;;;5103288;28;20039;-74
2023/08/01 11:37:30;;;;;;;4.55;2.78;;;896.30;1075.20;;;;;;5101028;28;20024;-73
2023/08/01 11:39:56;;;;;;;7.03;3.20;;;896.70;1126.40;;;;;;5103133;28;20142;-74
2023/08/01 11:42:22;;;;;;;6.47;3.00;;;921.90;1075.20;;;;;;5101534;28;20492;-75
2023/08/01 11:44:47;;;;;;;5.50;2.85;;;896.90;1075.20;;;;;;5106001;28;20031;-76
2023/08/01 11:47:14;;;;;;;4.32;2.70;;;896.80;1100.80;;;;;;5098992;28;20382;-75
2023/08/01 11:49:46;;;;;;;6.13;3.28;;;871.30;1152.00;;;;;;5101888;28;20054;-74
2023/08/01 11:52:25;;;;;;;4.15;3.00;;;896.30;1152.00;;;;;;5107978;28;20101;-79
2023/08/01 11:54:51;;;;;;;5.45;2.60;;;896.80;1126.40;;;;;;5100035;28;20567;-74
2023/08/01 11:57:17;;;;;;;6.43;2.90;;;921.60;1126.40;;;;;;5104938;28;20114;-74
2023/08/01 11:59:48;;;;;;;4.20;3.00;;;896.60;1100.80;;;;;;5100949;28;20110;-75
2023/08/01 12:02:22;;;;;;;6.18;3.63;;;871.30;1126.40;;;;;;5097796;28;20036;-74
2023/08/01 12:04:48;;;;;;;5.07;3.20;;;871.30;1152.00;;;;;;5101298;28;20024;-75
2023/08/01 12:07:16;;;;;;;6.93;3.45;;;871.10;1177.60;;;;;;5097362;28;20107;-76
2023/08/01 12:09:41;;;;;;;11.00;3.17;;;870.50;1177.60;;;;;;5103106;28;20043;-74
2023/08/01 12:12:09;;;;;;;6.72;3.03;;;870.80;1152.00;;;;;;5132455;27;20035;-76
2023/08/01 12:14:40;;;;;;;11.05;3.15;;;870.70;1152.00;;;;;;5095937;28;20035;-77
2023/08/01 12:17:06;;;;;;;6.07;2.97;;;870.60;1177.60;;;;;;5097679;28;20428;-75
2023/08/01 12:19:33;;;;;;;7.20;3.50;;;870.60;1177.60;;;;;;5099778;28;20020;-75